createdAt,value
2022-09-26T00:01:48.897Z,99301.47
2022-09-26T00:04:23.292Z,99301.63
2022-09-26T00:06:53.665Z,99297.47
2022-09-26T00:09:25.972Z,99298.50
2022-09-26T00:11:56.219Z,99290.81
2022-09-26T00:14:27.331Z,99288.25
2022-09-26T00:16:56.619Z,99283.16
2022-09-26T00:19:26.020Z,99287.44
2022-09-26T00:21:54.649Z,99283.03
2022-09-26T00:24:24.787Z,99279.69
2022-09-26T00:26:57.846Z,99273.75
2022-09-26T00:29:27.580Z,99279.09
2022-09-26T00:31:55.960Z,99272.31
2022-09-26T00:34:24.865Z,99265.56
2022-09-26T00:36:53.450Z,99270.94
2022-09-26T00:39:21.830Z,99271.00
2022-09-26T00:41:52.379Z,99277.19
2022-09-26T00:44:45.119Z,99273.94
2022-09-26T00:47:30.771Z,99272.31
2022-09-26T00:50:03.462Z,99261.31
2022-09-26T00:52:37.434Z,99264.06
2022-09-26T00:55:11.637Z,99263.47
2022-09-26T00:57:47.775Z,99265.38
2022-09-26T01:00:17.746Z,99263.81
2022-09-26T01:02:48.743Z,99261.28
2022-09-26T01:05:19.721Z,99252.75
2022-09-26T01:07:48.716Z,99249.34
2022-09-26T01:10:17.360Z,99254.00
2022-09-26T01:12:45.905Z,99250.66
2022-09-26T01:15:15.326Z,99241.38
2022-09-26T01:17:46.884Z,99240.63
2022-09-26T01:20:43.438Z,99246.00
2022-09-26T01:23:41.913Z,99249.63
2022-09-26T01:27:04.164Z,99242.84
2022-09-26T01:30:03.882Z,99252.47
2022-09-26T01:32:57.397Z,99253.56
2022-09-26T01:35:40.269Z,99244.16
2022-09-26T01:38:20.349Z,99243.50
2022-09-26T01:41:02.598Z,99238.31
2022-09-26T01:43:36.872Z,99238.47
2022-09-26T01:46:13.172Z,99243.75
2022-09-26T01:48:48.529Z,99234.38
2022-09-26T01:51:22.764Z,99232.81
2022-09-26T01:53:57.584Z,99239.91
2022-09-26T01:56:29.585Z,99236.47
2022-09-26T01:59:00.960Z,99232.28
2022-09-26T02:01:35.302Z,99233.22
2022-09-26T02:04:10.525Z,99234.94
2022-09-26T02:06:45.475Z,99227.13
2022-09-26T02:09:18.503Z,99216.78
2022-09-26T02:11:52.425Z,99219.53
2022-09-26T02:14:25.974Z,99217.00
2022-09-26T02:17:00.215Z,99219.59
2022-09-26T02:19:34.223Z,99213.72
2022-09-26T02:22:03.234Z,99208.59
2022-09-26T02:24:31.726Z,99215.59
2022-09-26T02:27:00.378Z,99218.28
2022-09-26T02:29:28.900Z,99218.28
2022-09-26T02:32:03.131Z,99219.22
2022-09-26T02:34:33.441Z,99221.06
2022-09-26T02:37:03.247Z,99218.44
2022-09-26T02:39:35.415Z,99211.66
2022-09-26T02:42:21.354Z,99210.00
2022-09-26T02:45:07.106Z,99216.22
2022-09-26T02:47:56.027Z,99215.50
2022-09-26T02:51:02.101Z,99210.47
2022-09-26T02:53:51.376Z,99210.66
2022-09-26T02:56:31.357Z,99202.91
2022-09-26T02:59:08.851Z,99201.25
2022-09-26T03:01:49.217Z,99198.75
2022-09-26T03:04:26.742Z,99206.50
2022-09-26T03:07:03.900Z,99205.59
2022-09-26T03:09:34.710Z,99206.47
2022-09-26T03:12:06.433Z,99203.97
2022-09-26T03:14:36.653Z,99197.03
2022-09-26T03:17:06.194Z,99197.94
2022-09-26T03:19:39.775Z,99196.34
2022-09-26T03:22:10.560Z,99196.56
2022-09-26T03:24:42.232Z,99196.78
2022-09-26T03:27:12.635Z,99188.38
2022-09-26T03:29:42.256Z,99193.41
2022-09-26T03:32:16.586Z,99195.91
2022-09-26T03:34:45.302Z,99197.63
2022-09-26T03:37:17.240Z,99191.53
2022-09-26T03:39:46.112Z,99195.84
2022-09-26T03:42:26.063Z,99197.53
2022-09-26T03:44:57.320Z,99190.91
2022-09-26T03:47:32.095Z,99189.53
2022-09-26T03:50:00.568Z,99182.81
2022-09-26T03:52:31.251Z,99193.38
2022-09-26T03:55:01.313Z,99183.97
2022-09-26T03:57:30.377Z,99184.94
2022-09-26T04:00:08.801Z,99181.63
2022-09-26T04:02:47.849Z,99177.34
2022-09-26T04:05:36.203Z,99173.88
2022-09-26T04:08:06.226Z,99173.88
2022-09-26T04:10:35.979Z,99167.78
2022-09-26T04:13:07.657Z,99171.22
2022-09-26T04:15:36.629Z,99170.44
2022-09-26T04:18:10.308Z,99162.72
2022-09-26T04:20:38.715Z,99153.53
2022-09-26T04:23:08.706Z,99158.72
2022-09-26T04:25:39.121Z,99157.91
2022-09-26T04:28:08.457Z,99153.63
2022-09-26T04:30:38.454Z,99150.13
2022-09-26T04:33:07.609Z,99142.25
2022-09-26T04:35:49.226Z,99148.19
2022-09-26T04:38:19.594Z,99149.03
2022-09-26T04:40:48.339Z,99153.28
2022-09-26T04:43:17.186Z,99147.22
2022-09-26T04:45:45.683Z,99145.47
2022-09-26T04:48:15.778Z,99133.31
2022-09-26T04:51:06.652Z,99140.84
2022-09-26T04:53:38.671Z,99131.09
2022-09-26T04:56:26.664Z,99130.19
2022-09-26T04:58:57.610Z,99133.56
2022-09-26T05:01:29.203Z,99134.31
2022-09-26T05:03:58.561Z,99133.34
2022-09-26T05:06:29.471Z,99139.19
2022-09-26T05:08:59.497Z,99134.78
2022-09-26T05:11:44.265Z,99134.53
2022-09-26T05:14:14.430Z,99131.84
2022-09-26T05:16:42.888Z,99132.81
2022-09-26T05:19:15.872Z,99132.16
2022-09-26T05:21:59.167Z,99135.75
2022-09-26T05:24:46.655Z,99142.47
2022-09-26T05:27:18.763Z,99149.41
2022-09-26T05:29:47.558Z,99146.81
2022-09-26T05:32:21.079Z,99141.44
2022-09-26T05:34:52.880Z,99151.59
2022-09-26T05:37:23.202Z,99144.44
2022-09-26T05:40:11.134Z,99152.13
2022-09-26T05:42:44.360Z,99150.06
2022-09-26T05:45:15.877Z,99159.34
2022-09-26T05:47:49.013Z,99156.56
2022-09-26T05:50:18.144Z,99151.81
2022-09-26T05:52:46.492Z,99156.63
2022-09-26T05:55:24.270Z,99141.66
2022-09-26T05:58:25.552Z,99147.13
2022-09-26T06:01:18.047Z,99149.22
2022-09-26T06:03:49.670Z,99155.72
2022-09-26T06:06:25.853Z,99155.31
2022-09-26T06:09:00.446Z,99153.97
2022-09-26T06:11:48.541Z,99151.59
2022-09-26T06:14:18.427Z,99155.94
2022-09-26T06:16:47.147Z,99155.09
2022-09-26T06:19:18.408Z,99151.69
2022-09-26T06:21:50.690Z,99150.75
2022-09-26T06:24:20.492Z,99155.91
2022-09-26T06:26:54.099Z,99148.13
2022-09-26T06:29:22.622Z,99152.56
2022-09-26T06:31:51.385Z,99151.84
2022-09-26T06:34:39.082Z,99149.38
2022-09-26T06:37:22.714Z,99149.34
2022-09-26T06:39:54.615Z,99152.13
2022-09-26T06:42:27.011Z,99146.50
2022-09-26T06:45:15.246Z,99138.44
2022-09-26T06:48:03.512Z,99148.84
2022-09-26T06:50:37.441Z,99150.69
2022-09-26T06:53:12.802Z,99160.41
2022-09-26T06:55:42.371Z,99150.91
2022-09-26T06:58:12.434Z,99148.72
2022-09-26T07:00:59.950Z,99152.50
2022-09-26T07:03:58.484Z,99151.97
2022-09-26T07:06:44.859Z,99149.19
2022-09-26T07:09:14.742Z,99148.75
2022-09-26T07:12:13.449Z,99155.34
2022-09-26T07:14:41.911Z,99153.50
2022-09-26T07:17:20.343Z,99153.16
2022-09-26T07:20:10.382Z,99146.63
2022-09-26T07:23:06.402Z,99147.47
2022-09-26T07:25:35.267Z,99136.75
2022-09-26T07:28:04.196Z,99136.25
2022-09-26T07:30:44.270Z,99138.25
2022-09-26T07:33:19.281Z,99129.06
2022-09-26T07:35:50.636Z,99138.34
2022-09-26T07:38:20.223Z,99136.25
2022-09-26T07:40:54.688Z,99134.91
2022-09-26T07:43:44.969Z,99137.09
2022-09-26T07:46:32.376Z,99128.03
2022-09-26T07:49:19.354Z,99137.81
2022-09-26T07:51:48.693Z,99138.84
2022-09-26T07:54:21.354Z,99131.50
2022-09-26T07:56:53.737Z,99122.38
2022-09-26T07:59:57.895Z,99129.44
2022-09-26T08:02:48.087Z,99133.34
2022-09-26T08:05:21.100Z,99129.84
2022-09-26T08:07:51.285Z,99133.66
2022-09-26T08:10:39.706Z,99134.50
2022-09-26T08:13:35.265Z,99133.53
2022-09-26T08:16:23.164Z,99124.06
2022-09-26T08:18:57.400Z,99128.91
2022-09-26T08:21:27.204Z,99123.84
2022-09-26T08:24:02.195Z,99117.50
2022-09-26T08:26:33.380Z,99118.63
2022-09-26T08:29:12.709Z,99118.19
2022-09-26T08:31:42.146Z,99116.00
2022-09-26T08:34:12.250Z,99123.31
2022-09-26T08:36:41.935Z,99120.63
2022-09-26T08:39:39.822Z,99129.22
2022-09-26T08:42:39.023Z,99114.88
2022-09-26T08:45:56.689Z,99118.06
2022-09-26T08:49:25.434Z,99117.53
2022-09-26T08:51:55.887Z,99114.41
2022-09-26T08:54:33.557Z,99117.16
2022-09-26T08:57:07.265Z,99119.88
2022-09-26T08:59:41.166Z,99115.19
2022-09-26T09:02:23.249Z,99113.97
2022-09-26T09:05:06.414Z,99108.81
2022-09-26T09:07:41.295Z,99099.78
2022-09-26T09:10:18.607Z,99098.69
2022-09-26T09:13:06.749Z,99100.41
2022-09-26T09:16:07.575Z,99099.28
2022-09-26T09:18:59.463Z,99085.66
2022-09-26T09:22:13.397Z,99097.09
2022-09-26T09:25:01.806Z,99094.00
2022-09-26T09:27:54.596Z,99092.44
2022-09-26T09:30:34.056Z,99083.94
2022-09-26T09:33:18.911Z,99085.13
2022-09-26T09:36:01.111Z,99075.47
2022-09-26T09:38:43.988Z,99077.13
2022-09-26T09:41:31.494Z,99069.56
2022-09-26T09:44:05.710Z,99071.00
2022-09-26T09:46:39.167Z,99064.63
2022-09-26T09:49:20.286Z,99068.16
2022-09-26T09:52:00.126Z,99069.66
2022-09-26T09:54:50.722Z,99069.16
2022-09-26T09:57:41.438Z,99064.84
2022-09-26T10:00:18.061Z,99057.16
2022-09-26T10:03:21.089Z,99071.03
2022-09-26T10:05:54.598Z,99063.50
2022-09-26T10:08:41.455Z,99063.22
2022-09-26T10:11:31.833Z,99054.31
2022-09-26T10:14:28.932Z,99069.00
2022-09-26T10:17:20.794Z,99068.34
2022-09-26T10:19:59.810Z,99061.41
2022-09-26T10:22:40.185Z,99060.41
2022-09-26T10:25:18.043Z,99057.06
2022-09-26T10:27:53.539Z,99054.38
2022-09-26T10:30:27.048Z,99057.47
2022-09-26T10:33:03.786Z,99049.22
2022-09-26T10:36:05.069Z,99046.44
2022-09-26T10:38:56.489Z,99038.59
2022-09-26T10:41:26.220Z,99038.28
2022-09-26T10:44:02.289Z,99034.13
2022-09-26T10:46:52.021Z,99041.91
2022-09-26T10:49:46.723Z,99038.09
2022-09-26T10:52:45.913Z,99040.56
2022-09-26T10:55:19.480Z,99032.94
2022-09-26T10:57:53.403Z,99033.06
2022-09-26T11:00:38.875Z,99024.78
2022-09-26T11:03:17.916Z,99020.59
2022-09-26T11:06:24.308Z,99018.09
2022-09-26T11:08:59.885Z,99024.81
2022-09-26T11:11:39.755Z,99017.34
2022-09-26T11:14:10.758Z,99011.13
2022-09-26T11:16:54.548Z,99013.53
2022-09-26T11:19:39.211Z,99017.22
2022-09-26T11:22:16.510Z,99011.53
2022-09-26T11:24:52.939Z,99014.31
2022-09-26T11:27:31.823Z,99010.59
2022-09-26T11:30:09.555Z,99012.44
2022-09-26T11:32:48.133Z,99010.66
2022-09-26T11:35:47.040Z,99000.34
2022-09-26T11:38:38.532Z,99002.06
2022-09-26T11:41:37.742Z,98993.16
2022-09-26T11:44:30.959Z,98998.22
2022-09-26T11:47:52.736Z,99003.75
2022-09-26T11:50:43.660Z,98996.53
2022-09-26T11:53:45.680Z,98978.84
2022-09-26T11:56:49.413Z,98977.47
2022-09-26T11:59:43.174Z,98980.63
2022-09-26T12:02:27.139Z,98973.97
2022-09-26T12:05:18.475Z,98972.84
2022-09-26T12:07:54.923Z,98973.03
2022-09-26T12:10:34.682Z,98981.09
2022-09-26T12:13:25.087Z,98970.97
2022-09-26T12:16:01.381Z,98965.28
2022-09-26T12:18:36.914Z,98958.94
2022-09-26T12:21:18.434Z,98964.59
2022-09-26T12:23:54.086Z,98962.94
2022-09-26T12:26:31.660Z,98956.84
2022-09-26T12:29:35.022Z,98958.31
2022-09-26T12:32:22.732Z,98962.94
2022-09-26T12:35:06.056Z,98965.84
2022-09-26T12:37:54.135Z,98956.56
2022-09-26T12:40:34.921Z,98956.28
2022-09-26T12:43:38.699Z,98956.41
2022-09-26T12:46:36.189Z,98950.78
2022-09-26T12:49:17.048Z,98944.06
2022-09-26T12:51:49.847Z,98940.28
2022-09-26T12:54:34.859Z,98954.63
2022-09-26T12:57:08.624Z,98942.44
2022-09-26T13:00:02.626Z,98938.53
2022-09-26T13:03:05.106Z,98938.13
2022-09-26T13:05:57.301Z,98937.44
2022-09-26T13:08:30.916Z,98936.75
2022-09-26T13:11:14.749Z,98921.94
2022-09-26T13:14:18.645Z,98922.16
2022-09-26T13:17:07.036Z,98925.91
2022-09-26T13:19:39.778Z,98921.84
2022-09-26T13:22:23.050Z,98921.47
2022-09-26T13:24:56.679Z,98914.72
2022-09-26T13:27:34.591Z,98918.25
2022-09-26T13:30:08.559Z,98918.72
2022-09-26T13:32:50.490Z,98916.66
2022-09-26T13:35:22.481Z,98917.16
2022-09-26T13:38:10.156Z,98912.00
2022-09-26T13:40:46.954Z,98918.75
2022-09-26T13:43:29.282Z,98919.25
2022-09-26T13:46:06.819Z,98915.63
2022-09-26T13:48:43.172Z,98909.13
2022-09-26T13:51:19.682Z,98902.44
2022-09-26T13:53:58.825Z,98902.72
2022-09-26T13:56:59.984Z,98901.22
2022-09-26T13:59:36.461Z,98899.06
2022-09-26T14:02:29.028Z,98903.53
2022-09-26T14:05:46.632Z,98894.75
2022-09-26T14:08:50.306Z,98897.34
2022-09-26T14:11:27.912Z,98894.13
2022-09-26T14:14:38.897Z,98892.47
2022-09-26T14:17:54.440Z,98889.97
2022-09-26T14:20:28.021Z,98888.56
2022-09-26T14:23:02.646Z,98887.91
2022-09-26T14:25:55.511Z,98896.06
2022-09-26T14:28:32.884Z,98888.56
2022-09-26T14:31:14.719Z,98892.03
2022-09-26T14:33:47.653Z,98890.88
2022-09-26T14:36:28.583Z,98883.34
2022-09-26T14:38:58.241Z,98881.06
2022-09-26T14:41:30.366Z,98877.03
2022-09-26T14:44:04.514Z,98884.50
2022-09-26T14:46:35.843Z,98877.84
2022-09-26T14:49:08.848Z,98887.09
2022-09-26T14:51:40.779Z,98884.03
2022-09-26T14:54:22.630Z,98887.53
2022-09-26T14:56:59.933Z,98890.50
2022-09-26T14:59:43.628Z,98889.91
2022-09-26T15:02:24.930Z,98892.97
2022-09-26T15:05:13.117Z,98895.22
2022-09-26T15:07:47.122Z,98893.53
2022-09-26T15:10:26.575Z,98887.09
2022-09-26T15:13:00.658Z,98890.28
2022-09-26T15:15:38.587Z,98895.84
2022-09-26T15:18:16.037Z,98896.28
2022-09-26T15:20:51.912Z,98887.06
2022-09-26T15:23:31.762Z,98883.41
2022-09-26T15:26:03.461Z,98885.06
2022-09-26T15:28:34.998Z,98890.88
2022-09-26T15:31:28.185Z,98878.97
2022-09-26T15:34:02.274Z,98883.25
2022-09-26T15:36:35.585Z,98885.88
2022-09-26T15:39:29.123Z,98884.25
2022-09-26T15:42:20.580Z,98892.28
2022-09-26T15:44:54.955Z,98888.75
2022-09-26T15:47:27.931Z,98896.63
2022-09-26T15:50:10.492Z,98888.91
2022-09-26T15:52:44.760Z,98892.06
2022-09-26T15:55:19.440Z,98885.03
2022-09-26T15:57:52.490Z,98883.94
2022-09-26T16:00:21.713Z,98887.09
2022-09-26T16:02:50.851Z,98891.22
2022-09-26T16:05:22.900Z,98887.41
2022-09-26T16:07:54.844Z,98893.09
2022-09-26T16:10:28.665Z,98892.97
2022-09-26T16:12:58.610Z,98897.53
2022-09-26T16:15:31.546Z,98888.22
2022-09-26T16:18:00.867Z,98889.88
2022-09-26T16:20:31.574Z,98889.16
2022-09-26T16:23:05.854Z,98881.22
2022-09-26T16:25:36.585Z,98883.16
2022-09-26T16:28:44.808Z,98891.31
2022-09-26T16:31:28.881Z,98880.06
2022-09-26T16:34:01.353Z,98884.25
2022-09-26T16:36:35.335Z,98890.50
2022-09-26T16:39:08.870Z,98881.97
2022-09-26T16:42:00.679Z,98881.97
2022-09-26T16:44:35.900Z,98880.31
2022-09-26T16:47:07.483Z,98882.94
2022-09-26T16:49:46.936Z,98878.88
2022-09-26T16:52:36.553Z,98885.00
2022-09-26T16:55:08.142Z,98879.84
2022-09-26T16:57:39.964Z,98877.19
2022-09-26T17:00:34.684Z,98877.78
2022-09-26T17:03:03.753Z,98884.88
2022-09-26T17:05:32.903Z,98882.25
2022-09-26T17:08:01.445Z,98887.53
2022-09-26T17:10:32.481Z,98878.88
2022-09-26T17:13:02.769Z,98879.13
2022-09-26T17:15:32.946Z,98887.28
2022-09-26T17:18:06.523Z,98889.22
2022-09-26T17:20:35.158Z,98884.88
2022-09-26T17:23:17.148Z,98890.16
2022-09-26T17:25:57.544Z,98891.25
2022-09-26T17:28:32.551Z,98893.31
2022-09-26T17:31:06.704Z,98896.19
2022-09-26T17:33:40.793Z,98894.91
2022-09-26T17:36:18.566Z,98890.09
2022-09-26T17:38:47.405Z,98890.47
2022-09-26T17:41:18.247Z,98892.75
2022-09-26T17:43:46.622Z,98893.84
2022-09-26T17:46:17.124Z,98894.06
2022-09-26T17:48:46.165Z,98886.16
2022-09-26T17:51:15.098Z,98899.22
2022-09-26T17:53:50.820Z,98896.69
2022-09-26T17:56:21.187Z,98902.09
2022-09-26T17:58:55.154Z,98896.22
2022-09-26T18:01:26.437Z,98897.19
2022-09-26T18:03:59.967Z,98907.75
2022-09-26T18:06:33.303Z,98904.25
2022-09-26T18:09:05.902Z,98891.91
2022-09-26T18:11:37.410Z,98900.81
2022-09-26T18:14:08.224Z,98900.81
2022-09-26T18:16:37.136Z,98895.53
2022-09-26T18:19:14.121Z,98892.78
2022-09-26T18:21:42.734Z,98896.34
2022-09-26T18:24:19.873Z,98889.41
2022-09-26T18:26:57.139Z,98889.97
2022-09-26T18:29:30.401Z,98895.00
2022-09-26T18:32:01.156Z,98905.91
2022-09-26T18:34:29.665Z,98899.09
2022-09-26T18:37:00.445Z,98899.31
2022-09-26T18:39:30.088Z,98899.53
2022-09-26T18:42:05.220Z,98896.19
2022-09-26T18:44:35.353Z,98894.53
2022-09-26T18:47:06.167Z,98904.59
2022-09-26T18:49:35.765Z,98891.88
2022-09-26T18:52:05.107Z,98899.16
2022-09-26T18:54:35.146Z,98898.69
2022-09-26T18:57:22.414Z,98897.25
2022-09-26T18:59:50.816Z,98897.72
2022-09-26T19:02:24.455Z,98893.63
2022-09-26T19:04:54.645Z,98892.06
2022-09-26T19:07:23.734Z,98891.34
2022-09-26T19:09:52.450Z,98898.53
2022-09-26T19:12:22.420Z,98899.47
2022-09-26T19:14:50.962Z,98887.88
2022-09-26T19:17:19.324Z,98887.50
2022-09-26T19:19:47.967Z,98898.53
2022-09-26T19:22:18.484Z,98898.53
2022-09-26T19:24:50.040Z,98896.38
2022-09-26T19:27:24.004Z,98899.22
2022-09-26T19:29:58.782Z,98885.81
2022-09-26T19:32:33.575Z,98895.66
2022-09-26T19:35:07.302Z,98904.50
2022-09-26T19:37:35.898Z,98898.63
2022-09-26T19:40:10.766Z,98893.72
2022-09-26T19:42:40.675Z,98888.78
2022-09-26T19:45:11.295Z,98886.53
2022-09-26T19:47:42.474Z,98893.94
2022-09-26T19:50:16.833Z,98883.72
2022-09-26T19:52:45.514Z,98887.66
2022-09-26T19:55:24.448Z,98896.22
2022-09-26T19:57:54.939Z,98882.72
2022-09-26T20:00:24.031Z,98888.28
2022-09-26T20:02:53.217Z,98886.63
2022-09-26T20:05:24.055Z,98888.63
2022-09-26T20:07:53.071Z,98893.03
2022-09-26T20:10:25.453Z,98887.06
2022-09-26T20:12:55.319Z,98889.91
2022-09-26T20:15:24.335Z,98883.19
2022-09-26T20:17:55.225Z,98883.19
2022-09-26T20:20:26.119Z,98890.34
2022-09-26T20:22:56.584Z,98878.13
2022-09-26T20:25:27.442Z,98880.66
2022-09-26T20:27:58.665Z,98878.97
2022-09-26T20:30:45.735Z,98876.25
2022-09-26T20:33:15.081Z,98873.72
2022-09-26T20:35:47.973Z,98880.66
2022-09-26T20:38:26.050Z,98873.59
2022-09-26T20:41:02.777Z,98869.31
2022-09-26T20:43:36.126Z,98872.84
2022-09-26T20:46:11.089Z,98869.50
2022-09-26T20:48:42.998Z,98866.03
2022-09-26T20:51:17.390Z,98868.06
2022-09-26T20:53:45.825Z,98859.44
2022-09-26T20:56:20.980Z,98861.34
2022-09-26T20:58:51.320Z,98854.63
2022-09-26T21:01:21.393Z,98848.63
2022-09-26T21:03:51.960Z,98848.84
2022-09-26T21:06:22.661Z,98849.91
2022-09-26T21:08:51.699Z,98848.34
2022-09-26T21:11:22.228Z,98840.44
2022-09-26T21:13:52.113Z,98829.81
2022-09-26T21:16:22.512Z,98840.34
2022-09-26T21:18:53.659Z,98836.16
2022-09-26T21:21:25.176Z,98832.56
2022-09-26T21:24:01.281Z,98826.34
2022-09-26T21:26:31.386Z,98821.31
2022-09-26T21:29:01.310Z,98826.69
2022-09-26T21:31:32.134Z,98822.72
2022-09-26T21:34:01.996Z,98819.38
2022-09-26T21:36:36.732Z,98819.69
2022-09-26T21:39:06.175Z,98818.31
2022-09-26T21:41:35.188Z,98813.06
2022-09-26T21:44:09.318Z,98813.31
2022-09-26T21:46:37.954Z,98813.53
2022-09-26T21:49:06.777Z,98816.59
2022-09-26T21:51:36.696Z,98812.72
2022-09-26T21:54:08.271Z,98825.34
2022-09-26T21:56:40.589Z,98830.31
2022-09-26T21:59:10.581Z,98827.41
2022-09-26T22:01:39.644Z,98823.22
2022-09-26T22:04:08.605Z,98825.19
2022-09-26T22:06:37.032Z,98825.44
2022-09-26T22:09:05.597Z,98822.28
2022-09-26T22:11:34.233Z,98824.41
2022-09-26T22:14:02.774Z,98820.41
2022-09-26T22:16:32.545Z,98818.31
2022-09-26T22:19:01.578Z,98822.81
2022-09-26T22:21:30.077Z,98821.25
2022-09-26T22:23:58.997Z,98821.31
2022-09-26T22:26:27.870Z,98817.00
2022-09-26T22:28:56.155Z,98813.44
2022-09-26T22:31:24.547Z,98810.81
2022-09-26T22:33:57.625Z,98809.06
2022-09-26T22:36:26.597Z,98795.81
2022-09-26T22:38:55.706Z,98797.41
2022-09-26T22:41:24.080Z,98798.25
2022-09-26T22:43:53.711Z,98789.41
2022-09-26T22:46:22.391Z,98789.31
2022-09-26T22:48:51.409Z,98782.34
2022-09-26T22:51:21.232Z,98786.78
2022-09-26T22:53:49.889Z,98789.41
2022-09-26T22:56:18.423Z,98783.31
2022-09-26T22:58:49.332Z,98791.81
2022-09-26T23:01:19.511Z,98781.31
2022-09-26T23:03:48.076Z,98781.31
2022-09-26T23:06:16.369Z,98775.84
2022-09-26T23:08:46.176Z,98780.13
2022-09-26T23:11:15.960Z,98773.13
2022-09-26T23:13:44.390Z,98776.56
2022-09-26T23:16:14.663Z,98772.16
2022-09-26T23:18:43.885Z,98762.91
2022-09-26T23:21:14.140Z,98772.16
2022-09-26T23:23:46.055Z,98767.00
2022-09-26T23:26:17.756Z,98769.44
2022-09-26T23:28:46.137Z,98773.72
2022-09-26T23:31:14.702Z,98781.50
2022-09-26T23:33:43.836Z,98777.09
2022-09-26T23:36:12.602Z,98769.22
2022-09-26T23:38:41.987Z,98761.34
2022-09-26T23:41:12.796Z,98769.09
2022-09-26T23:43:41.893Z,98764.69
2022-09-26T23:46:11.150Z,98755.94
2022-09-26T23:48:39.487Z,98758.47
2022-09-26T23:51:08.177Z,98757.53
2022-09-26T23:53:37.072Z,98752.50
2022-09-26T23:56:06.809Z,98763.00
2022-09-26T23:58:37.293Z,98759.63
